createdAt,value
2022-10-29T00:02:01.356Z,101637.22
2022-10-29T00:04:27.884Z,101624.69
2022-10-29T00:06:54.468Z,101634.31
2022-10-29T00:09:21.124Z,101644.22
2022-10-29T00:11:47.657Z,101638.69
2022-10-29T00:14:14.127Z,101640.66
2022-10-29T00:16:40.596Z,101642.34
2022-10-29T00:19:07.332Z,101641.59
2022-10-29T00:21:34.539Z,101636.94
2022-10-29T00:24:01.049Z,101643.56
2022-10-29T00:26:29.530Z,101645.25
2022-10-29T00:28:57.152Z,101652.69
2022-10-29T00:31:24.670Z,101642.06
2022-10-29T00:33:55.353Z,101637.19
2022-10-29T00:36:24.236Z,101652.53
2022-10-29T00:38:51.243Z,101649.56
2022-10-29T00:41:28.192Z,101639.13
2022-10-29T00:44:22.655Z,101647.91
2022-10-29T00:47:02.079Z,101658.63
2022-10-29T00:49:30.081Z,101665.53
2022-10-29T00:51:57.131Z,101656.19
2022-10-29T00:54:23.819Z,101657.59
2022-10-29T00:56:55.252Z,101659.19
2022-10-29T00:59:21.943Z,101654.56
2022-10-29T01:01:49.390Z,101650.41
2022-10-29T01:04:17.587Z,101651.22
2022-10-29T01:06:44.879Z,101646.06
2022-10-29T01:09:12.853Z,101653.44
2022-10-29T01:11:39.249Z,101652.63
2022-10-29T01:14:20.171Z,101647.72
2022-10-29T01:17:10.291Z,101649.41
2022-10-29T01:19:54.870Z,101651.25
2022-10-29T01:22:27.532Z,101646.34
2022-10-29T01:25:28.432Z,101639.50
2022-10-29T01:28:19.270Z,101652.16
2022-10-29T01:31:16.644Z,101650.53
2022-10-29T01:33:52.131Z,101652.75
2022-10-29T01:36:46.675Z,101646.19
2022-10-29T01:39:16.084Z,101655.81
2022-10-29T01:41:53.253Z,101648.44
2022-10-29T01:44:28.099Z,101660.19
2022-10-29T01:47:00.404Z,101667.03
2022-10-29T01:49:44.281Z,101661.88
2022-10-29T01:52:15.164Z,101659.72
2022-10-29T01:54:43.409Z,101666.03
2022-10-29T01:57:31.651Z,101665.22
2022-10-29T02:00:02.739Z,101661.66
2022-10-29T02:02:45.738Z,101655.06
2022-10-29T02:05:29.857Z,101657.28
2022-10-29T02:08:18.036Z,101669.31
2022-10-29T02:11:09.285Z,101664.41
2022-10-29T02:13:41.772Z,101667.66
2022-10-29T02:16:10.099Z,101662.44
2022-10-29T02:18:45.501Z,101657.78
2022-10-29T02:21:18.708Z,101653.94
2022-10-29T02:23:46.159Z,101643.56
2022-10-29T02:26:13.447Z,101636.72
2022-10-29T02:28:39.896Z,101625.22
2022-10-29T02:31:06.362Z,101623.59
2022-10-29T02:33:32.806Z,101626.91
2022-10-29T02:35:59.310Z,101628.28
2022-10-29T02:38:25.812Z,101630.22
2022-10-29T02:40:52.748Z,101625.28
2022-10-29T02:45:50.966Z,101617.38
2022-10-29T02:48:17.662Z,101617.41
2022-10-29T02:50:44.084Z,101613.84
2022-10-29T02:53:10.571Z,101608.69
2022-10-29T02:55:37.076Z,101608.16
2022-10-29T02:58:03.488Z,101609.81
2022-10-29T03:00:29.990Z,101608.44
2022-10-29T03:02:56.881Z,101612.59
2022-10-29T03:05:23.590Z,101603.88
2022-10-29T03:07:50.303Z,101611.00
2022-10-29T03:10:16.805Z,101605.81
2022-10-29T03:12:43.267Z,101602.31
2022-10-29T03:15:10.208Z,101605.06
2022-10-29T03:17:36.677Z,101604.25
2022-10-29T03:20:03.937Z,101601.25
2022-10-29T03:22:30.351Z,101605.66
2022-10-29T03:24:56.827Z,101605.34
2022-10-29T03:27:23.386Z,101591.44
2022-10-29T03:29:49.921Z,101593.09
2022-10-29T03:32:16.717Z,101596.66
2022-10-29T03:34:43.121Z,101600.22
2022-10-29T03:37:09.808Z,101599.69
2022-10-29T03:39:36.262Z,101601.03
2022-10-29T03:42:04.008Z,101599.44
2022-10-29T03:44:31.131Z,101598.88
2022-10-29T03:46:57.643Z,101593.44
2022-10-29T03:49:24.143Z,101592.31
2022-10-29T03:51:50.623Z,101595.03
2022-10-29T03:54:17.064Z,101604.34
2022-10-29T03:56:43.578Z,101599.16
2022-10-29T04:01:41.603Z,101585.50
2022-10-29T04:04:09.853Z,101598.34
2022-10-29T04:06:36.326Z,101598.88
2022-10-29T04:09:03.698Z,101607.34
2022-10-29T04:11:30.239Z,101592.63
2022-10-29T04:13:57.014Z,101599.44
2022-10-29T04:16:23.560Z,101596.44
2022-10-29T04:18:50.408Z,101601.91
2022-10-29T04:29:37.429Z,101601.34
2022-10-29T04:32:04.115Z,101615.53
2022-10-29T04:34:30.587Z,101619.88
2022-10-29T04:36:57.057Z,101624.00
2022-10-29T04:39:23.983Z,101623.47
2022-10-29T04:41:50.529Z,101631.91
2022-10-29T04:44:23.170Z,101637.91
2022-10-29T04:46:49.633Z,101628.91
2022-10-29T04:49:16.504Z,101628.34
2022-10-29T04:51:43.115Z,101623.19
2022-10-29T04:54:09.645Z,101611.97
2022-10-29T04:56:36.120Z,101607.34
2022-10-29T04:59:03.288Z,101605.41
2022-10-29T05:01:30.243Z,101613.88
2022-10-29T05:03:59.874Z,101606.22
2022-10-29T05:06:27.292Z,101617.69
2022-10-29T05:08:53.988Z,101620.69
2022-10-29T05:11:20.644Z,101617.41
2022-10-29T05:13:47.272Z,101616.59
2022-10-29T05:16:13.773Z,101608.41
2022-10-29T05:18:40.356Z,101607.84
2022-10-29T05:21:06.983Z,101607.28
2022-10-29T05:23:33.473Z,101602.94
2022-10-29T05:25:59.937Z,101607.59
2022-10-29T05:28:26.406Z,101600.47
2022-10-29T05:30:53.710Z,101606.47
2022-10-29T05:33:24.613Z,101610.28
2022-10-29T05:35:51.608Z,101608.38
2022-10-29T05:38:18.795Z,101621.78
2022-10-29T05:40:45.789Z,101620.94
2022-10-29T05:43:13.990Z,101625.03
2022-10-29T05:45:40.851Z,101628.56
2022-10-29T05:48:08.251Z,101639.72
2022-10-29T05:50:35.141Z,101633.72
2022-10-29T05:53:06.515Z,101634.81
2022-10-29T05:55:34.757Z,101629.63
2022-10-29T05:58:07.782Z,101635.66
2022-10-29T06:00:36.907Z,101636.75
2022-10-29T06:03:03.616Z,101641.41
2022-10-29T06:05:30.137Z,101633.75
2022-10-29T06:07:58.201Z,101636.78
2022-10-29T06:10:26.828Z,101636.25
2022-10-29T06:12:53.936Z,101637.31
2022-10-29T06:15:20.757Z,101635.16
2022-10-29T06:17:48.054Z,101644.97
2022-10-29T06:20:16.975Z,101646.09
2022-10-29T06:22:43.546Z,101646.66
2022-10-29T06:25:10.210Z,101658.69
2022-10-29T06:27:36.993Z,101651.84
2022-10-29T06:30:05.570Z,101655.97
2022-10-29T06:32:32.107Z,101637.94
2022-10-29T06:34:58.639Z,101636.84
2022-10-29T06:37:25.189Z,101627.84
2022-10-29T06:39:52.394Z,101625.16
2022-10-29T06:42:19.222Z,101621.03
2022-10-29T06:44:45.903Z,101622.13
2022-10-29T06:47:12.372Z,101622.41
2022-10-29T06:49:38.813Z,101622.69
2022-10-29T06:52:05.501Z,101625.41
2022-10-29T06:54:31.941Z,101623.50
2022-10-29T06:56:58.359Z,101619.13
2022-10-29T06:59:24.925Z,101624.31
2022-10-29T07:01:51.455Z,101634.69
2022-10-29T07:04:18.627Z,101635.25
2022-10-29T07:06:45.388Z,101631.94
2022-10-29T07:09:11.910Z,101625.94
2022-10-29T07:11:38.429Z,101632.22
2022-10-29T07:14:05.962Z,101631.97
2022-10-29T07:16:32.528Z,101640.69
2022-10-29T07:18:59.038Z,101638.25
2022-10-29T07:21:25.511Z,101628.16
2022-10-29T07:23:52.215Z,101634.69
2022-10-29T07:26:19.200Z,101630.59
2022-10-29T07:28:45.830Z,101618.84
2022-10-29T07:31:12.333Z,101624.03
2022-10-29T07:33:39.005Z,101619.91
2022-10-29T07:36:05.914Z,101624.84
2022-10-29T07:38:32.482Z,101627.56
2022-10-29T07:40:58.982Z,101624.00
2022-10-29T07:43:25.420Z,101628.66
2022-10-29T07:45:52.005Z,101621.00
2022-10-29T07:48:20.423Z,101618.25
2022-10-29T07:50:48.016Z,101621.53
2022-10-29T07:53:15.203Z,101623.19
2022-10-29T07:55:41.874Z,101626.72
2022-10-29T07:58:11.622Z,101630.00
2022-10-29T08:00:40.332Z,101627.53
2022-10-29T08:03:07.223Z,101643.09
2022-10-29T08:05:35.233Z,101638.72
2022-10-29T08:08:02.065Z,101631.81
2022-10-29T08:10:30.648Z,101634.81
2022-10-29T08:12:59.358Z,101635.34
2022-10-29T08:15:30.520Z,101641.03
2022-10-29T08:17:57.761Z,101638.84
2022-10-29T08:20:26.556Z,101631.16
2022-10-29T08:22:53.470Z,101626.72
2022-10-29T08:25:21.019Z,101619.84
2022-10-29T08:28:02.134Z,101623.09
2022-10-29T08:30:29.283Z,101628.53
2022-10-29T08:32:56.477Z,101621.94
2022-10-29T08:35:23.285Z,101634.22
2022-10-29T08:37:49.778Z,101631.16
2022-10-29T08:40:24.734Z,101630.28
2022-10-29T08:43:11.464Z,101637.28
2022-10-29T08:45:49.118Z,101625.38
2022-10-29T08:48:27.960Z,101631.06
2022-10-29T08:51:14.704Z,101619.47
2022-10-29T08:54:03.992Z,101614.72
2022-10-29T08:56:39.099Z,101608.94
2022-10-29T08:59:24.771Z,101597.63
2022-10-29T09:01:55.317Z,101607.94
2022-10-29T09:04:27.364Z,101602.13
2022-10-29T09:07:19.216Z,101616.00
2022-10-29T09:09:56.618Z,101603.56
2022-10-29T09:12:35.497Z,101608.72
2022-10-29T09:15:32.141Z,101610.25
2022-10-29T09:18:18.144Z,101616.75
2022-10-29T09:21:04.923Z,101626.53
2022-10-29T09:24:02.825Z,101632.50
2022-10-29T09:26:38.730Z,101634.03
2022-10-29T09:29:11.656Z,101632.06
2022-10-29T09:31:49.316Z,101637.19
2022-10-29T09:34:30.817Z,101628.88
2022-10-29T09:36:59.151Z,101638.69
2022-10-29T09:39:37.104Z,101636.41
2022-10-29T09:42:11.379Z,101625.56
2022-10-29T09:45:09.856Z,101623.56
2022-10-29T09:47:55.899Z,101610.25
2022-10-29T09:50:41.382Z,101608.25
2022-10-29T09:53:08.782Z,101615.00
2022-10-29T09:55:40.519Z,101611.94
2022-10-29T09:58:07.857Z,101603.13
2022-10-29T10:00:34.990Z,101603.91
2022-10-29T10:03:11.075Z,101591.50
2022-10-29T10:06:00.854Z,101590.69
2022-10-29T10:08:28.005Z,101585.94
2022-10-29T10:10:56.381Z,101586.94
2022-10-29T10:13:59.511Z,101586.66
2022-10-29T10:16:33.127Z,101586.13
2022-10-29T10:18:59.703Z,101577.06
2022-10-29T10:21:31.214Z,101575.94
2022-10-29T10:23:59.437Z,101566.81
2022-10-29T10:26:36.861Z,101565.91
2022-10-29T10:29:22.633Z,101570.59
2022-10-29T10:31:51.168Z,101568.47
2022-10-29T10:34:35.722Z,101561.97
2022-10-29T10:37:05.210Z,101561.28
2022-10-29T10:39:35.464Z,101561.97
2022-10-29T10:42:06.901Z,101555.25
2022-10-29T10:44:34.813Z,101548.72
2022-10-29T10:47:06.876Z,101543.31
2022-10-29T10:49:36.240Z,101556.66
2022-10-29T10:52:15.182Z,101554.41
2022-10-29T10:54:48.336Z,101552.69
2022-10-29T10:57:17.089Z,101543.47
2022-10-29T11:00:03.057Z,101540.59
2022-10-29T11:02:33.663Z,101538.56
2022-10-29T11:05:09.490Z,101534.56
2022-10-29T11:07:39.236Z,101530.56
2022-10-29T11:10:10.433Z,101519.72
2022-10-29T11:12:42.065Z,101519.53
2022-10-29T11:16:05.094Z,101519.53
2022-10-29T11:19:13.085Z,101515.16
2022-10-29T11:21:47.103Z,101527.78
2022-10-29T11:24:21.193Z,101525.44
2022-10-29T11:27:06.222Z,101518.66
2022-10-29T11:29:49.155Z,101519.91
2022-10-29T11:32:33.171Z,101513.31
2022-10-29T11:35:09.494Z,101520.13
2022-10-29T11:37:54.125Z,101527.16
2022-10-29T11:40:23.754Z,101524.34
2022-10-29T11:42:50.832Z,101525.50
2022-10-29T11:45:38.702Z,101514.47
2022-10-29T11:48:08.012Z,101511.31
2022-10-29T11:50:37.534Z,101509.34
2022-10-29T11:53:30.133Z,101511.34
2022-10-29T11:56:20.925Z,101498.88
2022-10-29T11:58:57.391Z,101501.13
2022-10-29T12:01:45.017Z,101488.78
2022-10-29T12:04:29.763Z,101485.22
2022-10-29T12:07:10.760Z,101478.06
2022-10-29T12:10:14.791Z,101478.69
2022-10-29T12:12:53.999Z,101475.78
2022-10-29T12:15:25.937Z,101455.53
2022-10-29T12:18:16.453Z,101450.50
2022-10-29T12:21:09.571Z,101441.91
2022-10-29T12:23:56.433Z,101444.66
2022-10-29T12:26:31.665Z,101435.75
2022-10-29T12:29:04.242Z,101434.47
2022-10-29T12:31:42.962Z,101415.84
2022-10-29T12:34:39.256Z,101411.84
2022-10-29T12:37:15.030Z,101411.06
2022-10-29T12:39:47.345Z,101415.44
2022-10-29T12:42:21.928Z,101410.56
2022-10-29T12:45:14.273Z,101418.34
2022-10-29T12:48:17.340Z,101415.75
2022-10-29T12:51:31.911Z,101415.09
2022-10-29T12:54:20.325Z,101410.50
2022-10-29T12:56:50.525Z,101404.84
2022-10-29T12:59:23.720Z,101411.81
2022-10-29T13:02:12.407Z,101409.22
2022-10-29T13:05:11.165Z,101408.56
2022-10-29T13:07:58.892Z,101400.94
2022-10-29T13:10:27.079Z,101400.59
2022-10-29T13:13:12.147Z,101397.22
2022-10-29T13:15:43.548Z,101399.31
2022-10-29T13:18:12.719Z,101402.06
2022-10-29T13:20:43.141Z,101399.00
2022-10-29T13:23:24.570Z,101405.03
2022-10-29T13:25:56.365Z,101396.91
2022-10-29T13:28:22.805Z,101405.94
2022-10-29T13:30:52.472Z,101407.41
2022-10-29T13:33:21.624Z,101402.50
2022-10-29T13:35:54.249Z,101408.53
2022-10-29T13:38:46.986Z,101411.84
2022-10-29T13:41:42.612Z,101409.06
2022-10-29T13:44:19.353Z,101400.31
2022-10-29T13:47:05.292Z,101397.22
2022-10-29T13:49:39.267Z,101398.97
2022-10-29T13:52:11.313Z,101390.34
2022-10-29T13:54:50.037Z,101385.97
2022-10-29T13:57:25.405Z,101390.06
2022-10-29T13:59:59.329Z,101400.13
2022-10-29T14:02:29.992Z,101397.22
2022-10-29T14:05:05.863Z,101388.59
2022-10-29T14:08:02.367Z,101400.63
2022-10-29T14:10:41.051Z,101397.88
2022-10-29T14:13:23.551Z,101395.94
2022-10-29T14:16:11.072Z,101384.25
2022-10-29T14:18:42.547Z,101384.09
2022-10-29T14:21:16.943Z,101385.84
2022-10-29T14:24:02.847Z,101378.72
2022-10-29T14:26:31.570Z,101383.44
2022-10-29T14:29:12.923Z,101384.09
2022-10-29T14:31:39.395Z,101386.19
2022-10-29T14:34:07.140Z,101385.38
2022-10-29T14:36:38.737Z,101382.13
2022-10-29T14:39:08.077Z,101380.69
2022-10-29T14:41:39.099Z,101377.09
2022-10-29T14:44:17.993Z,101370.75
2022-10-29T14:47:00.424Z,101370.28
2022-10-29T14:49:30.758Z,101374.00
2022-10-29T14:52:02.730Z,101374.97
2022-10-29T14:54:34.037Z,101373.38
2022-10-29T14:57:14.227Z,101366.22
2022-10-29T14:59:47.640Z,101367.34
2022-10-29T15:02:36.818Z,101364.75
2022-10-29T15:05:07.466Z,101371.06
2022-10-29T15:07:36.109Z,101366.81
2022-10-29T15:10:03.341Z,101365.84
2022-10-29T15:12:36.427Z,101362.94
2022-10-29T15:15:19.487Z,101361.94
2022-10-29T15:18:00.673Z,101370.19
2022-10-29T15:20:47.893Z,101366.63
2022-10-29T15:23:27.740Z,101369.66
2022-10-29T15:26:06.800Z,101366.22
2022-10-29T15:28:39.737Z,101367.31
2022-10-29T15:31:07.142Z,101370.69
2022-10-29T15:33:35.930Z,101365.16
2022-10-29T15:36:04.803Z,101360.41
2022-10-29T15:38:31.333Z,101369.28
2022-10-29T15:41:20.669Z,101365.69
2022-10-29T15:43:49.916Z,101362.22
2022-10-29T15:46:29.364Z,101358.50
2022-10-29T15:48:56.026Z,101361.69
2022-10-29T15:51:30.792Z,101362.81
2022-10-29T15:54:02.660Z,101363.56
2022-10-29T15:56:31.241Z,101361.19
2022-10-29T15:58:59.547Z,101360.97
2022-10-29T16:01:26.106Z,101367.00
2022-10-29T16:03:52.881Z,101363.25
2022-10-29T16:06:19.714Z,101343.81
2022-10-29T16:08:51.574Z,101342.59
2022-10-29T16:11:20.736Z,101342.69
2022-10-29T16:13:54.679Z,101337.91
2022-10-29T16:16:24.244Z,101337.44
2022-10-29T16:18:52.103Z,101340.59
2022-10-29T16:21:23.957Z,101331.66
2022-10-29T16:23:51.408Z,101333.19
2022-10-29T16:26:23.122Z,101336.88
2022-10-29T16:28:50.280Z,101341.66
2022-10-29T16:31:25.638Z,101341.78
2022-10-29T16:33:56.612Z,101339.75
2022-10-29T16:36:23.143Z,101344.22
2022-10-29T16:38:49.707Z,101338.03
2022-10-29T16:41:18.623Z,101339.25
2022-10-29T16:43:46.068Z,101333.84
2022-10-29T16:46:13.591Z,101336.41
2022-10-29T16:48:40.781Z,101338.94
2022-10-29T16:51:07.495Z,101342.59
2022-10-29T16:53:34.306Z,101337.50
2022-10-29T16:56:02.775Z,101343.09
2022-10-29T16:58:29.347Z,101342.88
2022-10-29T17:01:04.116Z,101343.47
2022-10-29T17:03:31.153Z,101331.69
2022-10-29T17:06:06.465Z,101333.09
2022-10-29T17:08:34.385Z,101326.59
2022-10-29T17:11:03.424Z,101332.69
2022-10-29T17:13:29.943Z,101333.88
2022-10-29T17:15:56.645Z,101328.47
2022-10-29T17:18:24.585Z,101334.88
2022-10-29T17:20:58.338Z,101332.00
2022-10-29T17:23:24.933Z,101328.06
2022-10-29T17:25:53.729Z,101338.56
2022-10-29T17:28:21.945Z,101332.97
2022-10-29T17:30:48.833Z,101325.41
2022-10-29T17:33:16.229Z,101321.13
2022-10-29T17:35:44.020Z,101331.44
2022-10-29T17:38:11.258Z,101326.94
2022-10-29T17:40:37.873Z,101325.97
2022-10-29T17:43:04.430Z,101330.69
2022-10-29T17:45:30.959Z,101334.31
2022-10-29T17:47:58.620Z,101333.56
2022-10-29T17:50:26.254Z,101341.28
2022-10-29T17:52:53.706Z,101334.44
2022-10-29T17:55:20.649Z,101340.22
2022-10-29T17:57:47.695Z,101338.38
2022-10-29T18:00:14.836Z,101333.72
2022-10-29T18:02:41.363Z,101334.59
2022-10-29T18:05:08.418Z,101341.78
2022-10-29T18:07:34.967Z,101338.28
2022-10-29T18:10:03.775Z,101343.00
2022-10-29T18:12:30.246Z,101336.19
2022-10-29T18:14:56.938Z,101334.06
2022-10-29T18:17:23.356Z,101336.53
2022-10-29T18:19:49.942Z,101335.22
2022-10-29T18:22:16.546Z,101333.63
2022-10-29T18:24:43.044Z,101333.94
2022-10-29T18:27:09.471Z,101337.25
2022-10-29T18:29:35.977Z,101335.34
2022-10-29T18:32:04.053Z,101334.50
2022-10-29T18:34:31.618Z,101337.31
2022-10-29T18:36:58.181Z,101335.97
2022-10-29T18:39:24.690Z,101337.66
2022-10-29T18:41:51.305Z,101344.81
2022-10-29T18:44:17.748Z,101345.97
2022-10-29T18:46:44.252Z,101343.25
2022-10-29T18:49:12.945Z,101347.69
2022-10-29T18:51:39.851Z,101356.19
2022-10-29T18:54:06.414Z,101348.81
2022-10-29T18:56:32.971Z,101347.47
2022-10-29T18:59:00.222Z,101339.25
2022-10-29T19:01:31.298Z,101337.13
2022-10-29T19:04:04.137Z,101335.47
2022-10-29T19:06:32.914Z,101340.44
2022-10-29T19:09:02.662Z,101328.69
2022-10-29T19:11:29.840Z,101327.38
2022-10-29T19:14:02.243Z,101325.69
2022-10-29T19:16:30.622Z,101322.97
2022-10-29T19:19:03.030Z,101320.81
2022-10-29T19:21:30.743Z,101328.78
2022-10-29T19:23:59.445Z,101328.25
2022-10-29T19:26:28.054Z,101331.28
2022-10-29T19:28:54.688Z,101331.03
2022-10-29T19:31:26.574Z,101324.50
2022-10-29T19:33:55.684Z,101323.72
2022-10-29T19:36:23.359Z,101324.53
2022-10-29T19:38:50.176Z,101326.19
2022-10-29T19:41:18.084Z,101324.53
2022-10-29T19:43:44.782Z,101331.13
2022-10-29T19:46:16.877Z,101332.56
2022-10-29T19:48:47.918Z,101329.88
2022-10-29T19:51:14.490Z,101328.53
2022-10-29T19:53:41.033Z,101337.81
2022-10-29T19:56:10.888Z,101330.44
2022-10-29T19:58:37.521Z,101320.06
2022-10-29T20:01:06.799Z,101319.81
2022-10-29T20:03:33.306Z,101322.31
2022-10-29T20:06:00.026Z,101326.13
2022-10-29T20:08:27.316Z,101327.53
2022-10-29T20:10:55.826Z,101331.94
2022-10-29T20:13:22.301Z,101324.88
2022-10-29T20:15:49.118Z,101325.44
2022-10-29T20:18:15.558Z,101327.94
2022-10-29T20:20:42.612Z,101326.84
2022-10-29T20:23:09.117Z,101329.88
2022-10-29T20:25:35.583Z,101332.88
2022-10-29T20:28:02.645Z,101327.16
2022-10-29T20:30:30.128Z,101319.53
2022-10-29T20:32:57.119Z,101319.00
2022-10-29T20:35:24.148Z,101322.28
2022-10-29T20:37:50.648Z,101313.56
2022-10-29T20:40:17.780Z,101320.16
2022-10-29T20:42:44.254Z,101307.56
2022-10-29T20:45:10.813Z,101307.06
2022-10-29T20:47:37.260Z,101302.16
2022-10-29T20:50:04.054Z,101297.78
2022-10-29T20:52:30.543Z,101295.59
2022-10-29T20:54:57.032Z,101296.47
2022-10-29T20:57:23.506Z,101293.72
2022-10-29T20:59:50.167Z,101296.19
2022-10-29T21:02:17.009Z,101303.03
2022-10-29T21:04:43.553Z,101291.03
2022-10-29T21:07:10.071Z,101298.41
2022-10-29T21:09:36.496Z,101297.09
2022-10-29T21:12:03.124Z,101296.81
2022-10-29T21:14:29.746Z,101293.78
2022-10-29T21:16:56.513Z,101283.16
2022-10-29T21:19:23.088Z,101302.81
2022-10-29T21:21:49.753Z,101303.63
2022-10-29T21:24:17.817Z,101303.63
2022-10-29T21:26:44.223Z,101288.31
2022-10-29T21:29:10.712Z,101291.63
2022-10-29T21:31:37.151Z,101284.50
2022-10-29T21:34:03.894Z,101292.72
2022-10-29T21:36:30.376Z,101289.44
2022-10-29T21:38:57.015Z,101289.72
2022-10-29T21:41:23.453Z,101282.06
2022-10-29T21:43:50.061Z,101269.22
2022-10-29T21:46:16.682Z,101259.94
2022-10-29T21:48:43.294Z,101261.44
2022-10-29T21:51:11.470Z,101251.31
2022-10-29T21:53:38.659Z,101255.63
2022-10-29T21:56:07.458Z,101251.53
2022-10-29T21:58:34.467Z,101246.38
2022-10-29T22:01:03.518Z,101245.56
2022-10-29T22:03:32.268Z,101245.59
2022-10-29T22:06:07.250Z,101240.19
2022-10-29T22:08:34.696Z,101230.09
2022-10-29T22:11:02.009Z,101238.88
2022-10-29T22:13:29.135Z,101230.16
2022-10-29T22:15:56.112Z,101237.31
2022-10-29T22:18:23.607Z,101231.84
2022-10-29T22:20:50.269Z,101228.63
2022-10-29T22:25:51.165Z,101229.72
2022-10-29T22:28:17.767Z,101216.94
2022-10-29T22:30:44.320Z,101213.94
2022-10-29T22:33:10.810Z,101220.16
2022-10-29T22:35:37.729Z,101215.69
2022-10-29T22:38:04.433Z,101211.22
2022-10-29T22:40:30.886Z,101210.94
2022-10-29T22:42:57.624Z,101212.78
2022-10-29T22:45:24.414Z,101210.81
2022-10-29T22:47:50.985Z,101214.34
2022-10-29T22:50:17.707Z,101215.22
2022-10-29T22:52:44.248Z,101214.75
2022-10-29T22:55:10.676Z,101218.31
2022-10-29T22:57:37.139Z,101213.41
2022-10-29T23:00:03.877Z,101218.41
2022-10-29T23:02:30.487Z,101218.97
2022-10-29T23:04:56.978Z,101214.88
2022-10-29T23:07:23.454Z,101214.06
2022-10-29T23:09:50.156Z,101223.66
2022-10-29T23:12:16.733Z,101216.84
2022-10-29T23:14:43.208Z,101226.69
2022-10-29T23:17:09.641Z,101227.78
2022-10-29T23:19:36.099Z,101251.25
2022-10-29T23:22:02.595Z,101252.91
2022-10-29T23:24:29.090Z,101255.84
2022-10-29T23:26:55.717Z,101242.19
2022-10-29T23:29:22.360Z,101239.72
2022-10-29T23:31:49.078Z,101243.00
2022-10-29T23:34:15.532Z,101239.16
2022-10-29T23:36:42.044Z,101240.25
2022-10-29T23:39:08.642Z,101245.94
2022-10-29T23:41:35.231Z,101248.06
2022-10-29T23:44:01.759Z,101243.31
2022-10-29T23:46:28.316Z,101248.47
2022-10-29T23:48:54.936Z,101255.28
2022-10-29T23:51:21.750Z,101244.69
2022-10-29T23:53:50.432Z,101237.06
2022-10-29T23:56:19.976Z,101251.28
2022-10-29T23:58:46.441Z,101234.81
